Time;durP1;ratioP1;P1;durP2;ratioP2;P2;SDS_P1;SDS_P2;PMS_P1;PMS_P2;Temp;Humidity;BMP_temperature;BMP_pressure;BME280_temperature;BME280_humidity;BME280_pressure;Samples;Min_cycle;Max_cycle;Signal;HPM_P1;HPM_P2
2024/03/16 00:01:19;;;;;;;51.20;34.80;;;;;;;13.05;73.41;99928.27;106558;1254;60585;-67
2024/03/16 00:07:41;;;;;;;49.50;32.10;;;;;;;13.09;73.62;99924.23;104399;1257;76224;-68
2024/03/16 00:13:42;;;;;;;40.70;29.40;;;;;;;13.11;72.55;99926.42;106119;1255;72293;-67
2024/03/16 00:16:58;;;;;;;42.30;30.90;;;;;;;13.00;73.33;99927.11;104274;1260;60571;-66
2024/03/16 00:23:43;;;;;;;45.20;30.10;;;;;;;12.93;74.39;99925.86;104671;1253;74184;-68
2024/03/16 00:34:27;;;;;;;39.50;28.10;;;;;;;13.02;73.36;99928.08;105232;1256;64387;-67
2024/03/16 00:40:26;;;;;;;35.90;25.10;;;;;;;12.99;72.98;99925.23;105913;1254;74098;-66
2024/03/16 00:53:05;;;;;;;31.00;20.10;;;;;;;13.09;72.83;99921.80;105780;1253;60553;-66
2024/03/16 00:56:09;;;;;;;33.10;22.30;;;;;;;13.05;72.80;99918.80;104880;1254;75502;-67
2024/03/16 00:59:09;;;;;;;33.90;21.20;;;;;;;13.02;73.25;99919.98;105055;1258;69060;-68
2024/03/16 01:05:32;;;;;;;32.60;21.70;;;;;;;12.94;73.89;99915.98;104668;1254;60726;-60
2024/03/16 01:17:54;;;;;;;34.60;20.90;;;;;;;12.95;73.50;99917.17;105290;1256;71750;-64
2024/03/16 01:20:24;;;;;;;30.70;19.90;;;;;;;12.82;74.69;99917.77;105997;1253;60582;-65
2024/03/16 01:25:57;;;;;;;28.40;19.40;;;;;;;12.93;73.22;99913.07;104852;1253;73679;-65
2024/03/16 01:29:13;;;;;;;28.00;19.90;;;;;;;12.88;74.03;99916.83;104813;1256;69832;-65
2024/03/16 01:32:25;;;;;;;28.00;18.50;;;;;;;12.91;73.81;99914.53;104806;1258;73021;-64
2024/03/16 01:38:47;;;;;;;21.30;17.40;;;;;;;12.99;73.18;99917.66;105178;1252;60431;-66
2024/03/16 01:45:12;;;;;;;25.10;16.90;;;;;;;12.97;73.47;99924.10;104438;1275;69714;-65
2024/03/16 01:48:24;;;;;;;20.20;15.30;;;;;;;12.91;74.02;99919.30;104561;1253;73160;-64
2024/03/16 01:54:30;;;;;;;23.70;17.00;;;;;;;13.05;72.47;99921.95;105057;1255;60452;-65
2024/03/16 02:00:26;;;;;;;24.00;17.60;;;;;;;13.22;69.59;99922.15;104615;1256;71058;-65
2024/03/16 02:03:39;;;;;;;24.00;17.50;;;;;;;13.16;69.51;99920.21;104724;1253;73312;-65
2024/03/16 02:06:52;;;;;;;21.60;16.30;;;;;;;13.15;69.70;99922.89;105071;1253;60640;-64
2024/03/16 02:10:04;;;;;;;22.10;16.50;;;;;;;13.20;69.45;99920.00;104715;1255;60504;-65
2024/03/16 02:13:17;;;;;;;22.60;17.90;;;;;;;13.14;69.74;99918.17;105768;1255;74912;-65
2024/03/16 02:15:54;;;;;;;22.80;16.70;;;;;;;13.18;69.28;99918.52;105049;1253;69200;-65
2024/03/16 02:19:07;;;;;;;25.30;16.80;;;;;;;13.16;68.87;99916.13;105984;1255;72788;-65
2024/03/16 04:30:24;;;;;;;15.70;13.10;;;;;;;12.57;77.39;99959.77;104288;1269;60627;-66
2024/03/16 04:40:10;;;;;;;19.70;15.90;;;;;;;12.42;77.39;99961.81;100739;1264;5359782;-66
2024/03/16 04:53:34;;;;;;;20.20;16.70;;;;;;;12.13;79.89;99965.05;103665;1273;69462;-66
2024/03/16 05:04:04;;;;;;;18.90;14.70;;;;;;;12.79;73.93;99969.27;105285;1257;59663;-60
2024/03/16 05:07:19;;;;;;;19.70;15.90;;;;;;;13.36;67.90;99966.57;104483;1256;72930;-65
2024/03/16 05:14:06;;;;;;;15.90;13.90;;;;;;;12.83;69.60;99965.73;104444;1259;73053;-64
2024/03/16 05:23:24;;;;;;;14.60;13.10;;;;;;;12.80;70.07;99966.78;104686;1263;72073;-65
2024/03/16 05:25:59;;;;;;;14.60;13.00;;;;;;;12.83;70.18;99965.39;104903;1259;69522;-65
2024/03/16 05:28:42;;;;;;;14.40;12.80;;;;;;;12.14;74.44;99973.64;105616;1259;72465;-65
2024/03/16 05:31:54;;;;;;;16.10;13.90;;;;;;;12.31;75.45;99973.92;104161;1263;60769;-66
2024/03/16 05:35:08;;;;;;;15.10;13.60;;;;;;;12.10;76.71;99971.33;103932;1262;59779;-66
2024/03/16 16:47:43;;;;;;;10.80;9.70;;;;;;;16.05;52.12;99897.69;101698;1293;62676;-62
2024/03/16 16:50:16;;;;;;;12.50;9.80;;;;;;;15.93;52.19;99896.45;103423;1268;60544;-61
2024/03/16 16:56:12;;;;;;;11.80;10.60;;;;;;;15.87;51.87;99899.98;100232;1263;5541863;-61
2024/03/16 16:58:39;;;;;;;11.80;10.60;;;;;;;15.64;52.32;99902.58;104852;1262;60944;-62
2024/03/16 17:04:54;;;;;;;14.60;12.20;;;;;;;15.44;53.45;99902.20;105141;1251;73125;-62
2024/03/16 17:10:58;;;;;;;18.70;13.60;;;;;;;15.35;53.76;99905.17;104961;1256;73217;-61
2024/03/16 17:14:12;;;;;;;17.10;15.30;;;;;;;15.58;53.05;99904.20;105183;1255;60937;-61
2024/03/16 17:16:45;;;;;;;21.10;17.40;;;;;;;15.46;53.63;99900.65;105112;1251;60051;-64
2024/03/16 17:23:07;;;;;;;17.50;15.60;;;;;;;15.20;54.11;99904.98;104325;1258;69412;-61
2024/03/16 17:25:59;;;;;;;22.40;17.90;;;;;;;15.24;54.13;99900.70;105197;1258;72600;-61
2024/03/16 17:29:10;;;;;;;27.00;19.70;;;;;;;15.30;54.14;99899.85;104447;1258;59831;-61
2024/03/16 17:31:37;;;;;;;20.20;15.90;;;;;;;15.28;53.78;99896.25;105493;1251;60748;-62
2024/03/16 17:45:35;;;;;;;12.00;10.90;;;;;;;15.11;54.59;99900.75;105010;1256;61145;-60
2024/03/16 17:48:02;;;;;;;12.90;11.20;;;;;;;15.28;53.86;99900.81;106165;1251;59611;-62
2024/03/16 17:54:46;;;;;;;14.20;12.60;;;;;;;15.01;54.94;99910.64;104705;1256;68663;-60
2024/03/16 17:57:58;;;;;;;16.20;13.70;;;;;;;15.02;54.97;99905.14;105698;1253;74538;-62
2024/03/16 18:01:09;;;;;;;14.20;12.30;;;;;;;15.03;55.13;99904.20;104900;1258;60167;-61
2024/03/16 18:04:20;;;;;;;13.50;12.10;;;;;;;14.98;55.27;99905.17;105902;1255;60333;-62
2024/03/16 18:07:30;;;;;;;14.00;11.90;;;;;;;15.07;55.41;99904.48;105497;1256;73321;-61
2024/03/16 18:10:47;;;;;;;14.80;13.30;;;;;;;14.96;55.57;99901.59;105610;1256;69555;-61
2024/03/16 18:13:45;;;;;;;13.40;12.00;;;;;;;14.85;56.28;99895.55;105577;1256;73337;-61
2024/03/16 18:16:37;;;;;;;;;;;;;;;14.81;56.45;99897.33;104833;1264;61068;-61
2024/03/16 18:19:55;;;;;;;13.20;11.10;;;;;;;14.80;56.92;99897.77;104779;1254;60083;-61
2024/03/16 18:22:28;;;;;;;13.80;10.90;;;;;;;14.83;56.70;99897.91;106753;1254;73117;-62
2024/03/16 18:24:54;;;;;;;12.20;11.00;;;;;;;14.82;56.59;99896.73;104326;1266;68972;-61
2024/03/16 18:28:12;;;;;;;12.70;11.20;;;;;;;14.73;56.66;99892.98;105652;1256;71780;-61
2024/03/16 18:31:23;;;;;;;14.70;12.40;;;;;;;15.12;56.15;99891.65;104552;1252;61513;-60
2024/03/16 18:34:21;;;;;;;12.30;10.90;;;;;;;15.17;55.60;99890.84;105604;1251;60226;-60
2024/03/16 18:36:54;;;;;;;13.60;11.10;;;;;;;15.18;55.56;99887.63;105010;1251;72900;-60
2024/03/16 18:39:21;;;;;;;13.10;11.70;;;;;;;15.21;55.34;99888.85;106926;1252;68322;-60
2024/03/16 18:41:48;;;;;;;13.40;12.00;;;;;;;15.21;55.51;99886.91;106315;1253;72596;-60
2024/03/16 18:44:56;;;;;;;14.00;11.60;;;;;;;15.23;55.63;99888.06;104389;1275;61792;-59
2024/03/16 18:48:07;;;;;;;13.70;11.70;;;;;;;14.72;57.32;99888.13;105257;1254;60214;-61
2024/03/16 18:50:59;;;;;;;13.10;11.50;;;;;;;14.62;58.31;99884.83;105498;1256;72880;-61
2024/03/16 18:54:10;;;;;;;12.70;11.40;;;;;;;14.60;58.92;99885.09;104664;1266;70317;-60
2024/03/16 18:56:37;;;;;;;13.80;12.40;;;;;;;14.54;59.47;99882.02;104255;1255;72577;-62
2024/03/16 18:59:51;;;;;;;16.50;12.10;;;;;;;14.48;59.47;99882.04;104789;1257;60846;-61
2024/03/16 19:02:23;;;;;;;13.20;11.80;;;;;;;14.39;60.03;99880.37;105683;1252;60866;-62
2024/03/16 19:08:30;;;;;;;15.10;12.80;;;;;;;14.39;60.87;99880.39;104605;1256;70254;-60
2024/03/16 19:11:41;;;;;;;16.20;12.90;;;;;;;14.39;60.98;99883.04;105107;1254;72654;-63
2024/03/16 19:18:34;;;;;;;14.60;12.90;;;;;;;14.45;61.17;99882.55;104645;1259;60698;-61
2024/03/16 19:21:01;;;;;;;14.60;12.90;;;;;;;14.53;60.41;99881.23;104600;1255;71767;-62
2024/03/16 19:28:22;;;;;;;15.50;12.70;;;;;;;14.37;62.09;99882.09;104332;1253;72611;-62
2024/03/16 19:30:58;;;;;;;16.10;13.40;;;;;;;14.39;61.63;99877.21;104847;1256;61193;-65
2024/03/16 19:33:31;;;;;;;17.20;13.80;;;;;;;14.20;62.25;99876.46;104337;1272;60053;-63
2024/03/16 19:36:51;;;;;;;15.80;14.10;;;;;;;14.15;63.24;99871.98;104424;1275;72889;-61
2024/03/16 19:40:07;;;;;;;19.40;15.10;;;;;;;14.17;63.57;99871.34;106170;1255;69456;-62
2024/03/16 19:43:05;;;;;;;17.20;14.90;;;;;;;14.18;64.34;99873.93;105633;1256;72421;-61
2024/03/16 19:49:23;;;;;;;17.10;14.30;;;;;;;14.09;64.98;99871.59;105333;1251;60251;-62
2024/03/16 19:51:59;;;;;;;17.90;14.80;;;;;;;14.21;64.32;99867.23;105206;1254;73532;-61
2024/03/16 19:54:32;;;;;;;17.50;15.60;;;;;;;14.17;63.95;99869.40;104820;1255;68949;-61
2024/03/16 19:57:05;;;;;;;22.00;18.80;;;;;;;14.17;64.70;99862.19;104833;1254;73340;-61
2024/03/16 20:15:11;;;;;;;23.40;18.00;;;;;;;14.01;66.41;99849.11;105095;1253;72658;-62
2024/03/16 20:26:53;;;;;;;17.60;15.50;;;;;;;13.99;66.93;99848.31;104693;1254;73029;-61
2024/03/16 20:29:26;;;;;;;18.90;15.40;;;;;;;13.95;67.35;99851.89;105087;1254;70133;-62
2024/03/16 20:31:53;;;;;;;22.80;16.60;;;;;;;13.83;67.72;99851.64;104595;1254;73176;-62
2024/03/16 20:34:58;;;;;;;21.50;16.40;;;;;;;13.82;68.16;99851.20;105475;1254;61908;-62
2024/03/16 20:38:09;;;;;;;20.00;16.90;;;;;;;13.82;68.43;99848.20;106018;1254;59714;-64
2024/03/16 20:41:00;;;;;;;19.50;16.80;;;;;;;14.10;66.73;99849.90;104318;1268;72766;-62
2024/03/16 20:43:37;;;;;;;24.40;18.20;;;;;;;13.76;69.19;99856.46;105601;1254;68144;-62
2024/03/16 20:46:10;;;;;;;23.20;18.00;;;;;;;13.76;69.05;99855.52;104991;1266;73039;-62
2024/03/16 20:48:37;;;;;;;22.20;17.60;;;;;;;13.66;69.76;99853.96;104487;1254;59944;-63
2024/03/16 20:51:07;;;;;;;28.60;19.00;;;;;;;13.63;70.62;99850.07;106679;1252;60073;-63
2024/03/16 20:54:18;;;;;;;19.70;16.60;;;;;;;13.73;70.24;99851.33;107550;1254;72383;-61
2024/03/16 21:01:45;;;;;;;21.60;15.80;;;;;;;13.58;71.25;99849.95;105508;1254;73716;-62
2024/03/16 21:11:58;;;;;;;24.60;17.80;;;;;;;13.53;72.58;99845.83;106167;1256;73051;-60
2024/03/16 21:15:09;;;;;;;22.30;17.50;;;;;;;13.84;70.27;99842.44;104780;1254;69817;-61
2024/03/16 21:18:13;;;;;;;23.50;17.30;;;;;;;13.57;71.71;99840.70;105254;1254;72608;-61
2024/03/16 21:25:44;;;;;;;21.60;16.30;;;;;;;13.56;72.58;99837.02;105513;1254;60780;-63
2024/03/16 21:33:17;;;;;;;22.00;17.40;;;;;;;14.04;68.97;99833.82;108451;1252;70140;-63
2024/03/16 21:35:44;;;;;;;21.00;16.80;;;;;;;14.02;67.99;99833.04;105892;1254;72388;-62
2024/03/16 21:38:17;;;;;;;23.40;17.80;;;;;;;13.69;70.78;99831.05;105548;1256;60437;-62
2024/03/16 21:40:59;;;;;;;23.20;18.60;;;;;;;13.71;70.55;99833.12;104926;1255;59755;-61
2024/03/16 21:47:45;;;;;;;22.90;18.20;;;;;;;13.41;73.69;99826.73;105900;1253;71848;-62
2024/03/16 21:50:18;;;;;;;24.50;18.80;;;;;;;13.36;74.66;99828.57;106483;1251;72623;-66
2024/03/16 21:57:48;;;;;;;25.40;18.40;;;;;;;13.35;76.66;99828.77;105894;1254;60434;-63
2024/03/16 22:00:27;;;;;;;23.40;18.90;;;;;;;13.34;76.40;99827.60;107400;1251;73486;-62
2024/03/16 22:02:54;;;;;;;23.80;19.20;;;;;;;13.33;76.44;99822.37;106610;1253;69444;-62
2024/03/16 22:06:01;;;;;;;27.90;22.10;;;;;;;13.44;75.88;99823.22;105361;1256;72543;-62
2024/03/16 22:08:37;;;;;;;29.90;23.10;;;;;;;13.50;75.66;99820.30;105466;1252;61251;-62
2024/03/16 22:11:04;;;;;;;35.20;26.50;;;;;;;13.48;75.56;99818.10;105818;1255;61080;-62
2024/03/16 22:13:30;;;;;;;34.70;25.20;;;;;;;13.49;75.50;99819.99;107658;1251;74556;-62
2024/03/16 22:16:27;;;;;;;31.80;23.50;;;;;;;13.55;75.95;99820.90;108421;1251;58901;-63
2024/03/16 22:18:55;;;;;;;32.40;22.30;;;;;;;13.58;75.98;99820.70;107803;1252;72256;-63
2024/03/16 22:21:22;;;;;;;30.20;22.20;;;;;;;13.62;75.83;99823.17;106665;1254;60960;-63
2024/03/16 22:23:54;;;;;;;28.80;22.20;;;;;;;13.58;76.53;99821.23;105754;1251;60556;-63
2024/03/16 22:29:58;;;;;;;27.60;20.90;;;;;;;13.59;77.63;99826.49;107582;1252;69499;-63
2024/03/16 22:41:34;;;;;;;28.70;21.90;;;;;;;13.79;76.53;99819.47;105594;1253;61509;-62
2024/03/16 22:44:45;;;;;;;28.40;21.40;;;;;;;13.84;75.42;99818.14;106220;1256;73415;-63
2024/03/16 22:50:54;;;;;;;29.30;21.60;;;;;;;13.79;74.98;99811.70;106186;1251;72745;-64
2024/03/16 23:01:08;;;;;;;;;;;;;;;13.76;74.66;99804.33;105107;1253;74430;-63
2024/03/16 23:04:19;;;;;;;31.10;21.50;;;;;;;13.87;73.69;99806.86;105099;1256;69723;-62
2024/03/16 23:06:58;;;;;;;35.00;22.80;;;;;;;13.72;74.54;99806.10;105442;1251;73411;-62
2024/03/16 23:09:31;;;;;;;35.10;23.30;;;;;;;13.66;75.15;99804.45;105498;1254;60793;-60
2024/03/16 23:12:42;;;;;;;31.60;24.10;;;;;;;13.63;75.70;99802.48;104573;1255;60594;-61
2024/03/16 23:15:56;;;;;;;36.70;24.30;;;;;;;13.61;75.77;99800.63;104785;1254;73559;-61
2024/03/16 23:19:07;;;;;;;38.20;25.30;;;;;;;13.63;75.99;99795.61;105464;1251;70001;-62
2024/03/16 23:22:17;;;;;;;39.10;25.30;;;;;;;13.63;75.99;99799.34;105324;1252;72337;-62
2024/03/16 23:25:22;;;;;;;39.90;26.80;;;;;;;13.62;76.42;99792.50;104733;1267;61009;-63
2024/03/16 23:28:26;;;;;;;40.10;26.30;;;;;;;13.60;75.58;99789.77;105211;1253;60499;-62
2024/03/16 23:31:00;;;;;;;43.90;28.20;;;;;;;13.51;76.38;99789.77;105565;1253;74234;-63
2024/03/16 23:33:30;;;;;;;38.90;27.60;;;;;;;13.47;76.42;99790.30;105027;1256;70603;-62
2024/03/16 23:36:03;;;;;;;42.10;28.50;;;;;;;13.46;77.45;99789.48;105799;1253;72206;-62
2024/03/16 23:38:36;;;;;;;44.40;30.10;;;;;;;13.53;77.15;99788.45;105307;1253;60696;-62
2024/03/16 23:41:47;;;;;;;45.60;29.90;;;;;;;13.52;76.93;99788.10;105543;1251;60546;-63
2024/03/16 23:48:43;;;;;;;44.60;29.60;;;;;;;13.52;77.73;99784.75;106390;1251;69251;-64
2024/03/16 23:51:09;;;;;;;39.80;29.00;;;;;;;13.52;77.96;99780.35;106649;1253;72348;-62
2024/03/16 23:58:30;;;;;;;43.60;29.40;;;;;;;13.61;77.79;99782.17;105730;1250;60599;-62
